createdAt,value
2018-06-05T00:04:27.242Z,21.30
2018-06-05T00:14:32.048Z,21.30
2018-06-05T00:24:36.949Z,21.30
2018-06-05T00:34:41.743Z,21.30
2018-06-05T00:54:50.982Z,21.30
2018-06-05T01:04:56.325Z,21.30
2018-06-05T01:15:01.035Z,21.20
2018-06-05T01:25:05.720Z,21.20
2018-06-05T01:35:10.596Z,21.20
2018-06-05T01:45:15.165Z,21.20
2018-06-05T01:55:21.170Z,21.20
2018-06-05T02:05:25.943Z,21.20
2018-06-05T02:15:30.561Z,21.20
2018-06-05T02:25:35.292Z,21.20
2018-06-05T02:35:40.156Z,21.10
2018-06-05T02:45:44.974Z,21.10
2018-06-05T02:55:49.832Z,21.10
2018-06-05T03:05:54.511Z,21.10
2018-06-05T03:15:59.332Z,21.10
2018-06-05T03:26:04.177Z,21.10
2018-06-05T03:36:08.879Z,21.10
2018-06-05T03:46:14.488Z,21.10
2018-06-05T03:56:19.618Z,21.10
2018-06-05T04:06:24.337Z,21.10
2018-06-05T04:16:29.155Z,21.00
2018-06-05T04:26:33.895Z,21.10
2018-06-05T04:36:38.433Z,21.00
2018-06-05T04:46:43.167Z,21.00
2018-06-05T04:56:49.943Z,21.00
2018-06-05T05:06:54.647Z,21.00
2018-06-05T05:16:59.520Z,21.00
2018-06-05T05:27:04.384Z,21.00
2018-06-05T05:37:09.172Z,20.90
2018-06-05T05:47:13.991Z,21.00
2018-06-05T05:57:18.857Z,20.90
2018-06-05T06:07:23.771Z,20.90
2018-06-05T06:17:28.517Z,20.90
2018-06-05T06:27:33.153Z,20.90
2018-06-05T06:37:37.848Z,20.90
2018-06-05T06:47:42.733Z,20.90
2018-06-05T06:57:47.551Z,20.90
2018-06-05T07:07:52.305Z,20.90
2018-06-05T07:17:56.948Z,20.90
2018-06-05T07:28:02.515Z,20.90
2018-06-05T07:38:07.899Z,20.90
2018-06-05T07:48:12.676Z,20.80
2018-06-05T07:58:17.552Z,20.90
2018-06-05T08:08:22.334Z,20.90
2018-06-05T08:18:27.241Z,20.80
2018-06-05T08:28:32.311Z,20.90
2018-06-05T08:38:37.016Z,20.90
2018-06-05T08:48:41.596Z,20.90
2018-06-05T08:58:46.433Z,20.90
2018-06-05T09:08:51.209Z,20.90
2018-06-05T09:18:56.847Z,20.90
2018-06-05T09:29:01.457Z,20.90
2018-06-05T09:39:09.363Z,20.90
2018-06-05T09:49:14.231Z,20.90
2018-06-05T10:09:23.508Z,20.90
2018-06-05T10:19:29.091Z,20.90
2018-06-05T10:29:34.046Z,20.90
2018-06-05T10:39:38.740Z,20.90
2018-06-05T10:49:43.558Z,20.90
2018-06-05T10:59:48.464Z,20.90
2018-06-05T11:09:53.099Z,21.00
2018-06-05T11:19:57.864Z,21.00
2018-06-05T11:30:02.810Z,21.00
2018-06-05T11:50:12.703Z,21.00
2018-06-05T12:00:17.470Z,21.00
2018-06-05T12:10:22.260Z,21.00
2018-06-05T12:30:31.584Z,21.00
2018-06-05T12:40:36.261Z,21.00
2018-06-05T12:50:40.891Z,21.00
2018-06-05T13:00:45.573Z,21.00
2018-06-05T13:10:51.507Z,21.00
2018-06-05T13:20:56.352Z,21.10
2018-06-05T13:31:01.116Z,21.10
2018-06-05T13:51:10.527Z,21.10
2018-06-05T14:01:15.343Z,21.10
2018-06-05T14:11:19.962Z,21.10
2018-06-05T14:21:25.415Z,21.20
2018-06-05T14:31:30.215Z,21.20
2018-06-05T14:41:35.058Z,21.20
2018-06-05T14:51:39.932Z,21.30
2018-06-05T15:01:44.812Z,21.30
2018-06-05T15:11:49.520Z,21.30
2018-06-05T15:21:54.474Z,21.30
2018-06-05T15:31:59.255Z,21.30
2018-06-05T15:42:05.218Z,21.30
2018-06-05T16:02:14.331Z,21.40
2018-06-05T16:12:19.107Z,21.40
2018-06-05T16:22:23.724Z,21.40
2018-06-05T16:32:28.704Z,21.40
2018-06-05T16:42:34.477Z,21.40
2018-06-05T16:52:39.193Z,21.50
2018-06-05T17:02:43.961Z,21.50
2018-06-05T17:22:53.173Z,21.50
2018-06-05T17:32:57.985Z,21.50
2018-06-05T17:43:02.660Z,21.50
2018-06-05T17:53:07.406Z,21.60
2018-06-05T18:03:12.163Z,21.50
2018-06-05T18:13:16.972Z,21.60
2018-06-05T18:23:21.730Z,21.60
2018-06-05T18:33:26.524Z,21.60
2018-06-05T18:43:32.008Z,21.60
2018-06-05T18:53:37.151Z,21.60
2018-06-05T19:03:41.941Z,21.60
2018-06-05T19:13:46.700Z,21.60
2018-06-05T19:23:51.573Z,21.60
2018-06-05T19:33:56.345Z,21.60
2018-06-05T19:44:01.231Z,21.60
2018-06-05T19:54:06.020Z,21.50
2018-06-05T20:04:10.901Z,21.50
2018-06-05T20:14:15.700Z,21.50
2018-06-05T20:24:20.556Z,21.50
2018-06-05T20:34:25.326Z,21.50
2018-06-05T20:44:30.620Z,21.50
2018-06-05T20:54:35.310Z,21.50
2018-06-05T21:04:40.164Z,21.50
2018-06-05T21:14:44.894Z,21.50
2018-06-05T21:24:49.752Z,21.50
2018-06-05T21:34:54.508Z,21.50
2018-06-05T21:44:59.222Z,21.50
2018-06-05T21:55:04.722Z,21.50
2018-06-05T22:05:10.342Z,21.50
2018-06-05T22:15:15.088Z,21.50
2018-06-05T22:25:19.710Z,21.50
2018-06-05T22:35:24.564Z,21.50
2018-06-05T22:45:29.301Z,21.50
2018-06-05T22:55:35.633Z,21.50
2018-06-05T23:05:40.816Z,21.50
2018-06-05T23:15:45.719Z,21.50
2018-06-05T23:25:50.392Z,21.50
2018-06-05T23:35:55.168Z,21.50
2018-06-05T23:45:59.880Z,21.50
2018-06-05T23:56:04.567Z,21.50
